sensor_id;sensor_type;location;lat;lon;timestamp;P1;durP1;ratioP1;P2;durP2;ratioP2
17171;SDS011;8701;50.150;8.756;2024-01-10T00:00:25;24.93;;;10.17;;
17171;SDS011;8701;50.150;8.756;2024-01-10T00:04:28;20.33;;;8.40;;
17171;SDS011;8701;50.150;8.756;2024-01-10T00:08:31;17.60;;;8.63;;
17171;SDS011;8701;50.150;8.756;2024-01-10T00:12:34;23.13;;;8.87;;
17171;SDS011;8701;50.150;8.756;2024-01-10T00:16:37;16.30;;;8.50;;
17171;SDS011;8701;50.150;8.756;2024-01-10T00:20:39;19.10;;;9.23;;
17171;SDS011;8701;50.150;8.756;2024-01-10T00:24:43;20.73;;;9.43;;
17171;SDS011;8701;50.150;8.756;2024-01-10T00:28:45;17.07;;;8.57;;
17171;SDS011;8701;50.150;8.756;2024-01-10T00:32:47;18.47;;;9.10;;
17171;SDS011;8701;50.150;8.756;2024-01-10T00:36:49;15.87;;;8.37;;
17171;SDS011;8701;50.150;8.756;2024-01-10T00:40:53;18.90;;;9.10;;
17171;SDS011;8701;50.150;8.756;2024-01-10T00:44:58;19.90;;;8.37;;
17171;SDS011;8701;50.150;8.756;2024-01-10T00:49:00;19.07;;;9.17;;
17171;SDS011;8701;50.150;8.756;2024-01-10T00:53:03;18.33;;;8.50;;
17171;SDS011;8701;50.150;8.756;2024-01-10T00:57:06;20.67;;;9.53;;
17171;SDS011;8701;50.150;8.756;2024-01-10T01:01:09;17.37;;;8.70;;
17171;SDS011;8701;50.150;8.756;2024-01-10T01:05:11;21.60;;;9.67;;
17171;SDS011;8701;50.150;8.756;2024-01-10T01:09:13;17.87;;;8.70;;
17171;SDS011;8701;50.150;8.756;2024-01-10T01:13:17;21.60;;;8.67;;
17171;SDS011;8701;50.150;8.756;2024-01-10T01:17:19;22.83;;;9.40;;
17171;SDS011;8701;50.150;8.756;2024-01-10T01:21:22;21.90;;;9.23;;
17171;SDS011;8701;50.150;8.756;2024-01-10T01:25:24;23.37;;;9.53;;
17171;SDS011;8701;50.150;8.756;2024-01-10T01:29:28;18.67;;;8.40;;
17171;SDS011;8701;50.150;8.756;2024-01-10T01:33:30;18.43;;;9.67;;
17171;SDS011;8701;50.150;8.756;2024-01-10T01:37:32;20.53;;;8.63;;
17171;SDS011;8701;50.150;8.756;2024-01-10T01:41:34;17.60;;;8.90;;
17171;SDS011;8701;50.150;8.756;2024-01-10T01:45:38;19.47;;;9.50;;
17171;SDS011;8701;50.150;8.756;2024-01-10T01:49:40;23.33;;;10.47;;
17171;SDS011;8701;50.150;8.756;2024-01-10T01:53:44;20.23;;;10.60;;
17171;SDS011;8701;50.150;8.756;2024-01-10T01:57:46;24.77;;;10.00;;
17171;SDS011;8701;50.150;8.756;2024-01-10T02:01:50;18.13;;;8.67;;
17171;SDS011;8701;50.150;8.756;2024-01-10T02:05:53;31.93;;;10.23;;
17171;SDS011;8701;50.150;8.756;2024-01-10T02:09:56;25.43;;;9.57;;
17171;SDS011;8701;50.150;8.756;2024-01-10T02:13:58;17.30;;;8.60;;
17171;SDS011;8701;50.150;8.756;2024-01-10T02:18:02;22.07;;;9.70;;
17171;SDS011;8701;50.150;8.756;2024-01-10T02:22:06;19.27;;;9.53;;
17171;SDS011;8701;50.150;8.756;2024-01-10T02:26:10;17.43;;;8.30;;
17171;SDS011;8701;50.150;8.756;2024-01-10T02:30:12;21.03;;;9.33;;
17171;SDS011;8701;50.150;8.756;2024-01-10T02:34:15;27.77;;;10.63;;
17171;SDS011;8701;50.150;8.756;2024-01-10T02:38:18;17.30;;;10.03;;
17171;SDS011;8701;50.150;8.756;2024-01-10T02:42:23;28.20;;;9.90;;
17171;SDS011;8701;50.150;8.756;2024-01-10T02:46:25;20.67;;;9.07;;
17171;SDS011;8701;50.150;8.756;2024-01-10T02:50:29;26.83;;;8.40;;
17171;SDS011;8701;50.150;8.756;2024-01-10T02:54:31;19.80;;;9.70;;
17171;SDS011;8701;50.150;8.756;2024-01-10T02:58:34;20.70;;;9.50;;
17171;SDS011;8701;50.150;8.756;2024-01-10T03:02:37;26.00;;;10.77;;
17171;SDS011;8701;50.150;8.756;2024-01-10T03:06:39;25.47;;;10.47;;
17171;SDS011;8701;50.150;8.756;2024-01-10T03:10:41;23.50;;;8.60;;
17171;SDS011;8701;50.150;8.756;2024-01-10T03:14:45;23.10;;;10.20;;
17171;SDS011;8701;50.150;8.756;2024-01-10T03:18:48;22.70;;;8.83;;
17171;SDS011;8701;50.150;8.756;2024-01-10T03:22:50;17.77;;;8.67;;
17171;SDS011;8701;50.150;8.756;2024-01-10T03:26:52;21.33;;;9.30;;
17171;SDS011;8701;50.150;8.756;2024-01-10T03:30:56;23.37;;;9.97;;
17171;SDS011;8701;50.150;8.756;2024-01-10T03:34:58;23.10;;;9.50;;
17171;SDS011;8701;50.150;8.756;2024-01-10T03:39:01;20.77;;;9.77;;
17171;SDS011;8701;50.150;8.756;2024-01-10T03:43:04;19.30;;;9.47;;
17171;SDS011;8701;50.150;8.756;2024-01-10T03:47:07;18.10;;;8.03;;
17171;SDS011;8701;50.150;8.756;2024-01-10T03:51:09;18.87;;;9.00;;
17171;SDS011;8701;50.150;8.756;2024-01-10T03:55:12;25.63;;;10.30;;
17171;SDS011;8701;50.150;8.756;2024-01-10T03:59:15;21.77;;;9.67;;
17171;SDS011;8701;50.150;8.756;2024-01-10T04:03:19;22.77;;;9.07;;
17171;SDS011;8701;50.150;8.756;2024-01-10T04:07:21;24.30;;;9.50;;
17171;SDS011;8701;50.150;8.756;2024-01-10T04:11:23;22.27;;;10.27;;
17171;SDS011;8701;50.150;8.756;2024-01-10T04:15:26;22.90;;;9.80;;
17171;SDS011;8701;50.150;8.756;2024-01-10T04:19:30;26.07;;;8.90;;
17171;SDS011;8701;50.150;8.756;2024-01-10T04:23:33;18.20;;;9.53;;
17171;SDS011;8701;50.150;8.756;2024-01-10T04:27:35;21.57;;;9.73;;
17171;SDS011;8701;50.150;8.756;2024-01-10T04:31:37;20.53;;;9.67;;
17171;SDS011;8701;50.150;8.756;2024-01-10T04:35:41;20.70;;;10.13;;
17171;SDS011;8701;50.150;8.756;2024-01-10T04:39:43;22.67;;;10.50;;
17171;SDS011;8701;50.150;8.756;2024-01-10T04:43:46;26.73;;;10.80;;
17171;SDS011;8701;50.150;8.756;2024-01-10T04:47:48;22.53;;;10.37;;
17171;SDS011;8701;50.150;8.756;2024-01-10T04:51:52;22.07;;;9.80;;
17171;SDS011;8701;50.150;8.756;2024-01-10T04:55:54;18.30;;;9.30;;
17171;SDS011;8701;50.150;8.756;2024-01-10T04:59:56;21.27;;;9.80;;
17171;SDS011;8701;50.150;8.756;2024-01-10T05:03:59;18.93;;;9.60;;
17171;SDS011;8701;50.150;8.756;2024-01-10T05:08:03;26.27;;;11.57;;
17171;SDS011;8701;50.150;8.756;2024-01-10T05:12:06;21.87;;;9.17;;
17171;SDS011;8701;50.150;8.756;2024-01-10T05:16:09;23.90;;;9.63;;
17171;SDS011;8701;50.150;8.756;2024-01-10T05:20:11;18.63;;;9.43;;
17171;SDS011;8701;50.150;8.756;2024-01-10T05:24:15;23.63;;;10.30;;
17171;SDS011;8701;50.150;8.756;2024-01-10T05:28:19;20.20;;;8.80;;
17171;SDS011;8701;50.150;8.756;2024-01-10T05:32:22;18.10;;;8.80;;
17171;SDS011;8701;50.150;8.756;2024-01-10T05:36:24;22.70;;;9.80;;
17171;SDS011;8701;50.150;8.756;2024-01-10T05:40:28;24.50;;;10.57;;
17171;SDS011;8701;50.150;8.756;2024-01-10T05:44:32;19.90;;;8.83;;
17171;SDS011;8701;50.150;8.756;2024-01-10T05:48:34;17.13;;;9.10;;
17171;SDS011;8701;50.150;8.756;2024-01-10T05:52:37;20.70;;;10.23;;
17171;SDS011;8701;50.150;8.756;2024-01-10T05:56:41;17.67;;;10.20;;
17171;SDS011;8701;50.150;8.756;2024-01-10T06:00:43;33.57;;;12.10;;
17171;SDS011;8701;50.150;8.756;2024-01-10T06:04:45;25.00;;;10.43;;
17171;SDS011;8701;50.150;8.756;2024-01-10T06:08:48;20.57;;;9.73;;
17171;SDS011;8701;50.150;8.756;2024-01-10T06:12:51;26.00;;;10.60;;
17171;SDS011;8701;50.150;8.756;2024-01-10T06:16:53;22.83;;;10.30;;
17171;SDS011;8701;50.150;8.756;2024-01-10T06:20:56;20.90;;;10.00;;
17171;SDS011;8701;50.150;8.756;2024-01-10T06:24:58;21.33;;;10.20;;
17171;SDS011;8701;50.150;8.756;2024-01-10T06:29:02;22.70;;;10.50;;
17171;SDS011;8701;50.150;8.756;2024-01-10T06:33:04;22.67;;;11.13;;
17171;SDS011;8701;50.150;8.756;2024-01-10T06:37:07;29.93;;;9.97;;
17171;SDS011;8701;50.150;8.756;2024-01-10T06:41:10;21.47;;;9.27;;
17171;SDS011;8701;50.150;8.756;2024-01-10T06:45:15;23.40;;;9.80;;
17171;SDS011;8701;50.150;8.756;2024-01-10T06:49:18;19.10;;;8.60;;
17171;SDS011;8701;50.150;8.756;2024-01-10T06:53:20;16.93;;;8.97;;
17171;SDS011;8701;50.150;8.756;2024-01-10T06:57:22;24.97;;;10.50;;
17171;SDS011;8701;50.150;8.756;2024-01-10T07:01:26;20.50;;;11.13;;
17171;SDS011;8701;50.150;8.756;2024-01-10T07:05:28;20.23;;;9.87;;
17171;SDS011;8701;50.150;8.756;2024-01-10T07:09:32;23.50;;;10.40;;
17171;SDS011;8701;50.150;8.756;2024-01-10T07:13:34;22.73;;;10.40;;
17171;SDS011;8701;50.150;8.756;2024-01-10T07:17:40;18.53;;;9.00;;
17171;SDS011;8701;50.150;8.756;2024-01-10T07:21:43;27.70;;;10.53;;
17171;SDS011;8701;50.150;8.756;2024-01-10T07:25:45;20.47;;;8.70;;
17171;SDS011;8701;50.150;8.756;2024-01-10T07:29:48;22.37;;;10.87;;
17171;SDS011;8701;50.150;8.756;2024-01-10T07:33:51;19.80;;;9.40;;
17171;SDS011;8701;50.150;8.756;2024-01-10T07:37:55;22.33;;;9.63;;
17171;SDS011;8701;50.150;8.756;2024-01-10T07:41:57;22.53;;;9.90;;
17171;SDS011;8701;50.150;8.756;2024-01-10T07:46:03;17.30;;;9.37;;
17171;SDS011;8701;50.150;8.756;2024-01-10T07:50:08;20.60;;;10.10;;
17171;SDS011;8701;50.150;8.756;2024-01-10T07:54:13;22.20;;;9.53;;
17171;SDS011;8701;50.150;8.756;2024-01-10T07:58:15;21.63;;;9.60;;
17171;SDS011;8701;50.150;8.756;2024-01-10T08:02:17;19.07;;;9.77;;
17171;SDS011;8701;50.150;8.756;2024-01-10T08:06:21;21.93;;;10.73;;
17171;SDS011;8701;50.150;8.756;2024-01-10T08:10:23;26.00;;;10.80;;
17171;SDS011;8701;50.150;8.756;2024-01-10T08:14:27;20.60;;;9.67;;
17171;SDS011;8701;50.150;8.756;2024-01-10T08:18:30;24.00;;;10.90;;
17171;SDS011;8701;50.150;8.756;2024-01-10T08:22:33;20.30;;;9.43;;
17171;SDS011;8701;50.150;8.756;2024-01-10T08:26:35;21.67;;;9.80;;
17171;SDS011;8701;50.150;8.756;2024-01-10T08:30:38;23.97;;;9.60;;
17171;SDS011;8701;50.150;8.756;2024-01-10T08:34:40;25.27;;;10.87;;
17171;SDS011;8701;50.150;8.756;2024-01-10T08:38:44;26.57;;;11.23;;
17171;SDS011;8701;50.150;8.756;2024-01-10T08:42:47;24.13;;;10.87;;
17171;SDS011;8701;50.150;8.756;2024-01-10T08:46:50;20.80;;;9.57;;
17171;SDS011;8701;50.150;8.756;2024-01-10T08:50:53;23.27;;;9.63;;
17171;SDS011;8701;50.150;8.756;2024-01-10T08:54:58;22.47;;;9.80;;
17171;SDS011;8701;50.150;8.756;2024-01-10T08:59:00;23.47;;;10.37;;
17171;SDS011;8701;50.150;8.756;2024-01-10T09:03:03;22.40;;;11.20;;
17171;SDS011;8701;50.150;8.756;2024-01-10T09:07:06;23.80;;;10.30;;
17171;SDS011;8701;50.150;8.756;2024-01-10T09:11:11;24.13;;;10.57;;
17171;SDS011;8701;50.150;8.756;2024-01-10T09:15:13;22.87;;;10.57;;
17171;SDS011;8701;50.150;8.756;2024-01-10T09:19:15;21.43;;;10.20;;
17171;SDS011;8701;50.150;8.756;2024-01-10T09:23:21;20.80;;;10.00;;
17171;SDS011;8701;50.150;8.756;2024-01-10T09:27:27;26.73;;;12.33;;
17171;SDS011;8701;50.150;8.756;2024-01-10T09:31:30;26.93;;;11.60;;
17171;SDS011;8701;50.150;8.756;2024-01-10T09:35:33;26.03;;;11.60;;
17171;SDS011;8701;50.150;8.756;2024-01-10T09:39:35;31.50;;;12.80;;
17171;SDS011;8701;50.150;8.756;2024-01-10T09:43:39;23.70;;;12.40;;
17171;SDS011;8701;50.150;8.756;2024-01-10T09:47:41;27.97;;;12.10;;
17171;SDS011;8701;50.150;8.756;2024-01-10T09:51:48;23.73;;;11.60;;
17171;SDS011;8701;50.150;8.756;2024-01-10T09:55:50;27.63;;;11.77;;
17171;SDS011;8701;50.150;8.756;2024-01-10T09:59:54;23.90;;;11.53;;
17171;SDS011;8701;50.150;8.756;2024-01-10T10:03:56;23.27;;;11.80;;
17171;SDS011;8701;50.150;8.756;2024-01-10T10:07:59;22.00;;;11.07;;
17171;SDS011;8701;50.150;8.756;2024-01-10T10:12:03;26.40;;;11.30;;
17171;SDS011;8701;50.150;8.756;2024-01-10T10:16:07;25.37;;;11.70;;
17171;SDS011;8701;50.150;8.756;2024-01-10T10:20:10;20.53;;;11.27;;
17171;SDS011;8701;50.150;8.756;2024-01-10T10:24:14;24.20;;;10.80;;
17171;SDS011;8701;50.150;8.756;2024-01-10T10:28:17;27.30;;;12.70;;
17171;SDS011;8701;50.150;8.756;2024-01-10T10:32:20;27.77;;;13.60;;
17171;SDS011;8701;50.150;8.756;2024-01-10T10:36:23;27.27;;;12.37;;
17171;SDS011;8701;50.150;8.756;2024-01-10T10:40:25;26.87;;;12.60;;
17171;SDS011;8701;50.150;8.756;2024-01-10T10:44:27;24.73;;;12.10;;
17171;SDS011;8701;50.150;8.756;2024-01-10T10:48:37;33.40;;;12.07;;
17171;SDS011;8701;50.150;8.756;2024-01-10T10:52:40;29.03;;;12.40;;
17171;SDS011;8701;50.150;8.756;2024-01-10T10:56:45;29.03;;;12.27;;
17171;SDS011;8701;50.150;8.756;2024-01-10T11:00:49;25.53;;;11.03;;
17171;SDS011;8701;50.150;8.756;2024-01-10T11:04:54;26.67;;;12.50;;
17171;SDS011;8701;50.150;8.756;2024-01-10T11:08:58;24.30;;;11.50;;
17171;SDS011;8701;50.150;8.756;2024-01-10T11:13:10;23.03;;;11.90;;
17171;SDS011;8701;50.150;8.756;2024-01-10T11:17:40;23.03;;;10.90;;
17171;SDS011;8701;50.150;8.756;2024-01-10T11:22:08;20.73;;;11.33;;
17171;SDS011;8701;50.150;8.756;2024-01-10T11:26:19;22.80;;;11.57;;
17171;SDS011;8701;50.150;8.756;2024-01-10T11:30:30;26.00;;;13.00;;
17171;SDS011;8701;50.150;8.756;2024-01-10T11:34:34;31.97;;;12.97;;
17171;SDS011;8701;50.150;8.756;2024-01-10T11:38:47;36.67;;;13.80;;
17171;SDS011;8701;50.150;8.756;2024-01-10T11:42:50;32.73;;;13.70;;
17171;SDS011;8701;50.150;8.756;2024-01-10T11:46:53;29.73;;;13.03;;
17171;SDS011;8701;50.150;8.756;2024-01-10T11:50:57;30.23;;;13.10;;
17171;SDS011;8701;50.150;8.756;2024-01-10T11:55:02;24.20;;;12.63;;
17171;SDS011;8701;50.150;8.756;2024-01-10T11:59:08;28.00;;;14.20;;
17171;SDS011;8701;50.150;8.756;2024-01-10T12:03:11;24.73;;;12.83;;
17171;SDS011;8701;50.150;8.756;2024-01-10T12:07:15;25.43;;;12.57;;
17171;SDS011;8701;50.150;8.756;2024-01-10T12:11:19;27.13;;;13.50;;
17171;SDS011;8701;50.150;8.756;2024-01-10T12:15:22;31.77;;;14.20;;
17171;SDS011;8701;50.150;8.756;2024-01-10T12:19:24;25.50;;;13.63;;
17171;SDS011;8701;50.150;8.756;2024-01-10T12:23:26;35.30;;;15.43;;
17171;SDS011;8701;50.150;8.756;2024-01-10T12:27:33;26.90;;;13.80;;
17171;SDS011;8701;50.150;8.756;2024-01-10T12:31:35;27.40;;;15.17;;
17171;SDS011;8701;50.150;8.756;2024-01-10T12:35:39;30.50;;;13.70;;
17171;SDS011;8701;50.150;8.756;2024-01-10T12:39:43;32.13;;;14.83;;
17171;SDS011;8701;50.150;8.756;2024-01-10T12:43:49;27.53;;;14.47;;
17171;SDS011;8701;50.150;8.756;2024-01-10T12:47:55;33.30;;;16.47;;
17171;SDS011;8701;50.150;8.756;2024-01-10T12:51:59;31.40;;;16.77;;
17171;SDS011;8701;50.150;8.756;2024-01-10T12:56:01;30.40;;;15.50;;
17171;SDS011;8701;50.150;8.756;2024-01-10T13:00:05;32.40;;;16.30;;
17171;SDS011;8701;50.150;8.756;2024-01-10T13:04:09;31.93;;;16.70;;
17171;SDS011;8701;50.150;8.756;2024-01-10T13:08:13;31.90;;;16.77;;
17171;SDS011;8701;50.150;8.756;2024-01-10T13:12:15;28.30;;;16.20;;
17171;SDS011;8701;50.150;8.756;2024-01-10T13:16:19;30.73;;;14.57;;
17171;SDS011;8701;50.150;8.756;2024-01-10T13:20:21;29.43;;;14.57;;
17171;SDS011;8701;50.150;8.756;2024-01-10T13:24:23;25.80;;;14.10;;
17171;SDS011;8701;50.150;8.756;2024-01-10T13:28:25;30.83;;;15.30;;
17171;SDS011;8701;50.150;8.756;2024-01-10T13:32:30;25.17;;;12.53;;
17171;SDS011;8701;50.150;8.756;2024-01-10T13:36:32;27.27;;;13.63;;
17171;SDS011;8701;50.150;8.756;2024-01-10T13:40:34;32.70;;;14.57;;
17171;SDS011;8701;50.150;8.756;2024-01-10T13:44:36;32.83;;;13.60;;
17171;SDS011;8701;50.150;8.756;2024-01-10T13:48:40;30.10;;;15.53;;
17171;SDS011;8701;50.150;8.756;2024-01-10T13:52:42;29.17;;;13.63;;
17171;SDS011;8701;50.150;8.756;2024-01-10T13:56:45;28.80;;;13.03;;
17171;SDS011;8701;50.150;8.756;2024-01-10T14:00:47;26.40;;;13.60;;
17171;SDS011;8701;50.150;8.756;2024-01-10T14:04:50;33.03;;;14.30;;
17171;SDS011;8701;50.150;8.756;2024-01-10T14:08:54;23.90;;;13.00;;
17171;SDS011;8701;50.150;8.756;2024-01-10T14:12:58;30.30;;;13.87;;
17171;SDS011;8701;50.150;8.756;2024-01-10T14:17:01;28.00;;;13.40;;
17171;SDS011;8701;50.150;8.756;2024-01-10T14:21:06;24.33;;;12.20;;
17171;SDS011;8701;50.150;8.756;2024-01-10T14:25:08;26.17;;;13.70;;
17171;SDS011;8701;50.150;8.756;2024-01-10T14:29:12;24.43;;;12.80;;
17171;SDS011;8701;50.150;8.756;2024-01-10T14:33:15;36.63;;;12.40;;
17171;SDS011;8701;50.150;8.756;2024-01-10T14:37:18;61.70;;;16.57;;
17171;SDS011;8701;50.150;8.756;2024-01-10T14:41:21;32.33;;;14.40;;
17171;SDS011;8701;50.150;8.756;2024-01-10T14:45:24;30.93;;;14.50;;
17171;SDS011;8701;50.150;8.756;2024-01-10T14:49:27;42.50;;;13.70;;
17171;SDS011;8701;50.150;8.756;2024-01-10T14:53:31;26.97;;;12.17;;
17171;SDS011;8701;50.150;8.756;2024-01-10T14:57:35;25.93;;;13.00;;
17171;SDS011;8701;50.150;8.756;2024-01-10T15:01:37;30.37;;;13.40;;
17171;SDS011;8701;50.150;8.756;2024-01-10T15:05:44;31.20;;;12.87;;
17171;SDS011;8701;50.150;8.756;2024-01-10T15:09:48;63.93;;;16.07;;
17171;SDS011;8701;50.150;8.756;2024-01-10T15:13:50;58.97;;;14.93;;
17171;SDS011;8701;50.150;8.756;2024-01-10T15:17:52;48.60;;;16.17;;
17171;SDS011;8701;50.150;8.756;2024-01-10T15:21:54;33.57;;;11.90;;
17171;SDS011;8701;50.150;8.756;2024-01-10T15:25:58;39.43;;;12.83;;
17171;SDS011;8701;50.150;8.756;2024-01-10T15:30:01;29.00;;;12.60;;
17171;SDS011;8701;50.150;8.756;2024-01-10T15:34:05;29.70;;;11.93;;
17171;SDS011;8701;50.150;8.756;2024-01-10T15:38:07;26.43;;;12.87;;
17171;SDS011;8701;50.150;8.756;2024-01-10T15:42:11;26.70;;;12.40;;
17171;SDS011;8701;50.150;8.756;2024-01-10T15:46:17;27.50;;;11.67;;
17171;SDS011;8701;50.150;8.756;2024-01-10T15:50:20;38.00;;;12.70;;
17171;SDS011;8701;50.150;8.756;2024-01-10T15:54:22;26.33;;;11.70;;
17171;SDS011;8701;50.150;8.756;2024-01-10T15:58:27;26.37;;;11.80;;
17171;SDS011;8701;50.150;8.756;2024-01-10T16:02:29;33.60;;;12.73;;
17171;SDS011;8701;50.150;8.756;2024-01-10T16:06:32;31.17;;;12.57;;
17171;SDS011;8701;50.150;8.756;2024-01-10T16:10:35;27.13;;;12.20;;
17171;SDS011;8701;50.150;8.756;2024-01-10T16:14:39;27.60;;;12.17;;
17171;SDS011;8701;50.150;8.756;2024-01-10T16:18:42;26.73;;;12.57;;
17171;SDS011;8701;50.150;8.756;2024-01-10T16:22:44;32.90;;;13.17;;
17171;SDS011;8701;50.150;8.756;2024-01-10T16:26:47;24.63;;;10.90;;
17171;SDS011;8701;50.150;8.756;2024-01-10T16:30:50;30.83;;;13.90;;
17171;SDS011;8701;50.150;8.756;2024-01-10T16:34:53;32.90;;;14.43;;
17171;SDS011;8701;50.150;8.756;2024-01-10T16:38:55;26.47;;;13.00;;
17171;SDS011;8701;50.150;8.756;2024-01-10T16:42:57;25.33;;;12.90;;
17171;SDS011;8701;50.150;8.756;2024-01-10T16:47:01;32.27;;;12.37;;
17171;SDS011;8701;50.150;8.756;2024-01-10T16:51:04;29.00;;;12.97;;
17171;SDS011;8701;50.150;8.756;2024-01-10T16:55:07;28.10;;;13.27;;
17171;SDS011;8701;50.150;8.756;2024-01-10T16:59:10;33.53;;;13.17;;
17171;SDS011;8701;50.150;8.756;2024-01-10T17:03:14;30.17;;;14.90;;
17171;SDS011;8701;50.150;8.756;2024-01-10T17:07:16;28.33;;;12.60;;
17171;SDS011;8701;50.150;8.756;2024-01-10T17:11:19;25.53;;;12.87;;
17171;SDS011;8701;50.150;8.756;2024-01-10T17:15:21;25.40;;;11.80;;
17171;SDS011;8701;50.150;8.756;2024-01-10T17:19:25;36.00;;;13.10;;
17171;SDS011;8701;50.150;8.756;2024-01-10T17:23:27;24.20;;;12.67;;
17171;SDS011;8701;50.150;8.756;2024-01-10T17:27:30;27.53;;;12.20;;
17171;SDS011;8701;50.150;8.756;2024-01-10T17:31:34;29.17;;;13.23;;
17171;SDS011;8701;50.150;8.756;2024-01-10T17:35:38;23.47;;;12.07;;
17171;SDS011;8701;50.150;8.756;2024-01-10T17:39:41;33.23;;;13.93;;
17171;SDS011;8701;50.150;8.756;2024-01-10T17:43:43;25.43;;;12.27;;
17171;SDS011;8701;50.150;8.756;2024-01-10T17:47:45;31.43;;;13.10;;
17171;SDS011;8701;50.150;8.756;2024-01-10T17:51:49;27.67;;;12.47;;
17171;SDS011;8701;50.150;8.756;2024-01-10T17:55:51;23.87;;;11.00;;
17171;SDS011;8701;50.150;8.756;2024-01-10T17:59:54;29.80;;;12.53;;
17171;SDS011;8701;50.150;8.756;2024-01-10T18:03:56;30.13;;;13.10;;
17171;SDS011;8701;50.150;8.756;2024-01-10T18:08:00;25.27;;;11.23;;
17171;SDS011;8701;50.150;8.756;2024-01-10T18:12:03;35.10;;;14.70;;
17171;SDS011;8701;50.150;8.756;2024-01-10T18:16:06;27.27;;;13.50;;
17171;SDS011;8701;50.150;8.756;2024-01-10T18:20:09;29.30;;;14.17;;
17171;SDS011;8701;50.150;8.756;2024-01-10T18:24:13;25.13;;;11.93;;
17171;SDS011;8701;50.150;8.756;2024-01-10T18:28:15;26.50;;;12.77;;
17171;SDS011;8701;50.150;8.756;2024-01-10T18:32:17;29.83;;;13.40;;
17171;SDS011;8701;50.150;8.756;2024-01-10T18:36:20;27.87;;;12.40;;
17171;SDS011;8701;50.150;8.756;2024-01-10T18:40:23;25.40;;;11.47;;
17171;SDS011;8701;50.150;8.756;2024-01-10T18:44:26;24.83;;;12.00;;
17171;SDS011;8701;50.150;8.756;2024-01-10T18:48:29;29.93;;;13.47;;
17171;SDS011;8701;50.150;8.756;2024-01-10T18:52:31;30.13;;;12.83;;
17171;SDS011;8701;50.150;8.756;2024-01-10T18:56:35;21.00;;;11.07;;
17171;SDS011;8701;50.150;8.756;2024-01-10T19:00:39;33.23;;;14.33;;
17171;SDS011;8701;50.150;8.756;2024-01-10T19:04:43;26.67;;;12.90;;
17171;SDS011;8701;50.150;8.756;2024-01-10T19:08:46;33.83;;;14.60;;
17171;SDS011;8701;50.150;8.756;2024-01-10T19:12:49;26.57;;;12.33;;
17171;SDS011;8701;50.150;8.756;2024-01-10T19:16:52;36.10;;;13.87;;
17171;SDS011;8701;50.150;8.756;2024-01-10T19:20:54;28.50;;;12.97;;
17171;SDS011;8701;50.150;8.756;2024-01-10T19:24:57;29.47;;;13.50;;
17171;SDS011;8701;50.150;8.756;2024-01-10T19:29:01;27.87;;;13.00;;
17171;SDS011;8701;50.150;8.756;2024-01-10T19:33:03;29.33;;;13.30;;
17171;SDS011;8701;50.150;8.756;2024-01-10T19:37:06;28.33;;;12.67;;
17171;SDS011;8701;50.150;8.756;2024-01-10T19:41:17;33.10;;;13.00;;
17171;SDS011;8701;50.150;8.756;2024-01-10T19:45:21;26.30;;;12.97;;
17171;SDS011;8701;50.150;8.756;2024-01-10T19:49:24;29.33;;;13.00;;
17171;SDS011;8701;50.150;8.756;2024-01-10T19:53:27;34.10;;;14.07;;
17171;SDS011;8701;50.150;8.756;2024-01-10T19:57:29;25.07;;;12.83;;
17171;SDS011;8701;50.150;8.756;2024-01-10T20:01:33;26.80;;;12.10;;
17171;SDS011;8701;50.150;8.756;2024-01-10T20:05:35;28.23;;;12.90;;
17171;SDS011;8701;50.150;8.756;2024-01-10T20:09:39;27.47;;;14.30;;
17171;SDS011;8701;50.150;8.756;2024-01-10T20:13:41;31.53;;;12.97;;
17171;SDS011;8701;50.150;8.756;2024-01-10T20:17:45;25.80;;;11.50;;
17171;SDS011;8701;50.150;8.756;2024-01-10T20:21:48;27.30;;;12.60;;
17171;SDS011;8701;50.150;8.756;2024-01-10T20:25:50;26.33;;;12.30;;
17171;SDS011;8701;50.150;8.756;2024-01-10T20:29:52;27.47;;;12.70;;
17171;SDS011;8701;50.150;8.756;2024-01-10T20:33:57;23.60;;;12.43;;
17171;SDS011;8701;50.150;8.756;2024-01-10T20:38:00;24.57;;;12.40;;
17171;SDS011;8701;50.150;8.756;2024-01-10T20:42:02;25.87;;;12.93;;
17171;SDS011;8701;50.150;8.756;2024-01-10T20:46:05;29.63;;;12.90;;
17171;SDS011;8701;50.150;8.756;2024-01-10T20:50:09;33.53;;;13.00;;
17171;SDS011;8701;50.150;8.756;2024-01-10T20:54:12;25.00;;;12.80;;
17171;SDS011;8701;50.150;8.756;2024-01-10T20:58:14;25.83;;;12.50;;
17171;SDS011;8701;50.150;8.756;2024-01-10T21:02:17;27.00;;;12.40;;
17171;SDS011;8701;50.150;8.756;2024-01-10T21:06:21;29.40;;;13.37;;
17171;SDS011;8701;50.150;8.756;2024-01-10T21:10:24;27.03;;;11.90;;
17171;SDS011;8701;50.150;8.756;2024-01-10T21:14:26;35.27;;;14.10;;
17171;SDS011;8701;50.150;8.756;2024-01-10T21:18:28;26.10;;;12.63;;
17171;SDS011;8701;50.150;8.756;2024-01-10T21:22:32;30.93;;;12.50;;
17171;SDS011;8701;50.150;8.756;2024-01-10T21:26:34;26.70;;;12.83;;
17171;SDS011;8701;50.150;8.756;2024-01-10T21:30:36;30.07;;;12.73;;
17171;SDS011;8701;50.150;8.756;2024-01-10T21:34:38;30.10;;;12.90;;
17171;SDS011;8701;50.150;8.756;2024-01-10T21:38:42;29.17;;;13.40;;
17171;SDS011;8701;50.150;8.756;2024-01-10T21:42:44;27.67;;;12.03;;
17171;SDS011;8701;50.150;8.756;2024-01-10T21:46:47;26.97;;;12.33;;
17171;SDS011;8701;50.150;8.756;2024-01-10T21:50:49;28.23;;;13.10;;
17171;SDS011;8701;50.150;8.756;2024-01-10T21:54:54;29.40;;;12.27;;
17171;SDS011;8701;50.150;8.756;2024-01-10T21:58:58;23.67;;;11.70;;
17171;SDS011;8701;50.150;8.756;2024-01-10T22:03:01;27.67;;;11.67;;
17171;SDS011;8701;50.150;8.756;2024-01-10T22:07:03;29.27;;;12.73;;
17171;SDS011;8701;50.150;8.756;2024-01-10T22:11:07;22.97;;;11.60;;
17171;SDS011;8701;50.150;8.756;2024-01-10T22:15:11;24.10;;;11.10;;
17171;SDS011;8701;50.150;8.756;2024-01-10T22:19:13;24.73;;;11.33;;
17171;SDS011;8701;50.150;8.756;2024-01-10T22:23:16;25.57;;;13.33;;
17171;SDS011;8701;50.150;8.756;2024-01-10T22:27:19;24.57;;;11.60;;
17171;SDS011;8701;50.150;8.756;2024-01-10T22:31:22;30.47;;;11.83;;
17171;SDS011;8701;50.150;8.756;2024-01-10T22:35:24;24.87;;;11.73;;
17171;SDS011;8701;50.150;8.756;2024-01-10T22:39:26;25.90;;;12.30;;
17171;SDS011;8701;50.150;8.756;2024-01-10T22:43:30;25.80;;;12.47;;
17171;SDS011;8701;50.150;8.756;2024-01-10T22:47:32;25.63;;;11.33;;
17171;SDS011;8701;50.150;8.756;2024-01-10T22:51:35;37.70;;;13.60;;
17171;SDS011;8701;50.150;8.756;2024-01-10T22:55:38;28.10;;;12.87;;
17171;SDS011;8701;50.150;8.756;2024-01-10T22:59:41;29.87;;;11.97;;
17171;SDS011;8701;50.150;8.756;2024-01-10T23:03:44;27.23;;;12.20;;
17171;SDS011;8701;50.150;8.756;2024-01-10T23:07:46;26.90;;;11.93;;
17171;SDS011;8701;50.150;8.756;2024-01-10T23:11:49;28.47;;;12.30;;
17171;SDS011;8701;50.150;8.756;2024-01-10T23:15:52;23.60;;;11.63;;
17171;SDS011;8701;50.150;8.756;2024-01-10T23:19:54;25.60;;;12.70;;
17171;SDS011;8701;50.150;8.756;2024-01-10T23:23:57;23.03;;;10.60;;
17171;SDS011;8701;50.150;8.756;2024-01-10T23:27:59;27.77;;;11.90;;
17171;SDS011;8701;50.150;8.756;2024-01-10T23:32:03;28.40;;;12.60;;
17171;SDS011;8701;50.150;8.756;2024-01-10T23:36:08;24.37;;;11.17;;
17171;SDS011;8701;50.150;8.756;2024-01-10T23:40:11;28.43;;;11.87;;
17171;SDS011;8701;50.150;8.756;2024-01-10T23:44:16;24.80;;;11.90;;
17171;SDS011;8701;50.150;8.756;2024-01-10T23:48:19;25.30;;;11.50;;
17171;SDS011;8701;50.150;8.756;2024-01-10T23:52:22;25.80;;;12.00;;
17171;SDS011;8701;50.150;8.756;2024-01-10T23:56:24;25.43;;;12.67;;
